sensor_id;sensor_type;location;lat;lon;timestamp;P1;durP1;ratioP1;P2;durP2;ratioP2
29120;SDS011;16191;49.548;8.658;2024-01-10T00:00:13;23.00;;;10.27;;
29120;SDS011;16191;49.548;8.658;2024-01-10T00:02:41;23.17;;;11.82;;
29120;SDS011;16191;49.548;8.658;2024-01-10T00:05:08;25.33;;;10.70;;
29120;SDS011;16191;49.548;8.658;2024-01-10T00:07:34;21.30;;;10.57;;
29120;SDS011;16191;49.548;8.658;2024-01-10T00:10:03;22.05;;;10.48;;
29120;SDS011;16191;49.548;8.658;2024-01-10T00:12:31;26.55;;;11.35;;
29120;SDS011;16191;49.548;8.658;2024-01-10T00:15:03;31.85;;;12.13;;
29120;SDS011;16191;49.548;8.658;2024-01-10T00:17:30;24.98;;;10.95;;
29120;SDS011;16191;49.548;8.658;2024-01-10T00:19:57;25.83;;;11.60;;
29120;SDS011;16191;49.548;8.658;2024-01-10T00:22:24;25.17;;;11.38;;
29120;SDS011;16191;49.548;8.658;2024-01-10T00:24:51;28.80;;;12.52;;
29120;SDS011;16191;49.548;8.658;2024-01-10T00:27:17;24.50;;;11.57;;
29120;SDS011;16191;49.548;8.658;2024-01-10T00:29:44;22.45;;;10.32;;
29120;SDS011;16191;49.548;8.658;2024-01-10T00:32:11;26.25;;;11.88;;
29120;SDS011;16191;49.548;8.658;2024-01-10T00:34:37;24.52;;;10.60;;
29120;SDS011;16191;49.548;8.658;2024-01-10T00:37:04;26.58;;;10.70;;
29120;SDS011;16191;49.548;8.658;2024-01-10T00:39:31;27.63;;;10.45;;
29120;SDS011;16191;49.548;8.658;2024-01-10T00:41:57;39.10;;;13.02;;
29120;SDS011;16191;49.548;8.658;2024-01-10T00:44:24;29.17;;;12.27;;
29120;SDS011;16191;49.548;8.658;2024-01-10T00:46:50;25.00;;;10.68;;
29120;SDS011;16191;49.548;8.658;2024-01-10T00:49:17;23.35;;;11.02;;
29120;SDS011;16191;49.548;8.658;2024-01-10T00:51:44;23.00;;;11.10;;
29120;SDS011;16191;49.548;8.658;2024-01-10T00:54:11;24.25;;;10.93;;
29120;SDS011;16191;49.548;8.658;2024-01-10T00:56:37;20.73;;;10.18;;
29120;SDS011;16191;49.548;8.658;2024-01-10T00:59:04;22.65;;;10.80;;
29120;SDS011;16191;49.548;8.658;2024-01-10T01:01:31;23.42;;;11.35;;
29120;SDS011;16191;49.548;8.658;2024-01-10T01:03:58;29.15;;;11.65;;
29120;SDS011;16191;49.548;8.658;2024-01-10T01:06:24;24.83;;;10.93;;
29120;SDS011;16191;49.548;8.658;2024-01-10T01:08:51;26.73;;;11.02;;
29120;SDS011;16191;49.548;8.658;2024-01-10T01:11:18;29.30;;;12.70;;
29120;SDS011;16191;49.548;8.658;2024-01-10T01:13:44;23.35;;;10.90;;
29120;SDS011;16191;49.548;8.658;2024-01-10T01:16:11;25.60;;;10.93;;
29120;SDS011;16191;49.548;8.658;2024-01-10T01:18:38;26.63;;;12.00;;
29120;SDS011;16191;49.548;8.658;2024-01-10T01:21:04;29.80;;;12.48;;
29120;SDS011;16191;49.548;8.658;2024-01-10T01:23:31;23.05;;;11.43;;
29120;SDS011;16191;49.548;8.658;2024-01-10T01:26:07;28.30;;;11.32;;
29120;SDS011;16191;49.548;8.658;2024-01-10T01:28:34;29.95;;;12.13;;
29120;SDS011;16191;49.548;8.658;2024-01-10T01:31:01;28.42;;;11.77;;
29120;SDS011;16191;49.548;8.658;2024-01-10T01:33:28;32.33;;;12.18;;
29120;SDS011;16191;49.548;8.658;2024-01-10T01:35:55;24.38;;;11.38;;
29120;SDS011;16191;49.548;8.658;2024-01-10T01:38:22;23.83;;;11.30;;
29120;SDS011;16191;49.548;8.658;2024-01-10T01:40:49;27.85;;;12.35;;
29120;SDS011;16191;49.548;8.658;2024-01-10T01:45:51;26.35;;;11.68;;
29120;SDS011;16191;49.548;8.658;2024-01-10T01:48:22;29.48;;;11.90;;
29120;SDS011;16191;49.548;8.658;2024-01-10T01:50:52;32.47;;;12.20;;
29120;SDS011;16191;49.548;8.658;2024-01-10T01:53:23;29.83;;;11.45;;
29120;SDS011;16191;49.548;8.658;2024-01-10T01:55:50;25.83;;;12.35;;
29120;SDS011;16191;49.548;8.658;2024-01-10T01:58:17;27.45;;;12.57;;
29120;SDS011;16191;49.548;8.658;2024-01-10T02:00:44;27.42;;;11.60;;
29120;SDS011;16191;49.548;8.658;2024-01-10T02:03:11;37.63;;;12.68;;
29120;SDS011;16191;49.548;8.658;2024-01-10T02:05:38;24.60;;;12.02;;
29120;SDS011;16191;49.548;8.658;2024-01-10T02:08:05;29.98;;;11.75;;
29120;SDS011;16191;49.548;8.658;2024-01-10T02:10:32;29.42;;;12.27;;
29120;SDS011;16191;49.548;8.658;2024-01-10T02:12:59;26.92;;;12.23;;
29120;SDS011;16191;49.548;8.658;2024-01-10T02:15:26;28.40;;;12.00;;
29120;SDS011;16191;49.548;8.658;2024-01-10T02:17:53;29.92;;;12.40;;
29120;SDS011;16191;49.548;8.658;2024-01-10T02:20:20;26.85;;;12.30;;
29120;SDS011;16191;49.548;8.658;2024-01-10T02:22:48;28.67;;;11.60;;
29120;SDS011;16191;49.548;8.658;2024-01-10T02:25:16;29.38;;;11.55;;
29120;SDS011;16191;49.548;8.658;2024-01-10T02:27:43;29.08;;;12.40;;
29120;SDS011;16191;49.548;8.658;2024-01-10T02:30:09;29.40;;;12.88;;
29120;SDS011;16191;49.548;8.658;2024-01-10T02:32:37;26.55;;;11.70;;
29120;SDS011;16191;49.548;8.658;2024-01-10T02:35:04;29.15;;;12.18;;
29120;SDS011;16191;49.548;8.658;2024-01-10T02:37:31;30.55;;;12.05;;
29120;SDS011;16191;49.548;8.658;2024-01-10T02:39:58;27.02;;;12.73;;
29120;SDS011;16191;49.548;8.658;2024-01-10T02:42:26;27.23;;;12.35;;
29120;SDS011;16191;49.548;8.658;2024-01-10T02:44:54;33.90;;;13.30;;
29120;SDS011;16191;49.548;8.658;2024-01-10T02:47:20;25.33;;;11.65;;
29120;SDS011;16191;49.548;8.658;2024-01-10T02:49:47;25.10;;;11.38;;
29120;SDS011;16191;49.548;8.658;2024-01-10T02:52:14;29.63;;;12.02;;
29120;SDS011;16191;49.548;8.658;2024-01-10T02:54:41;28.30;;;11.57;;
29120;SDS011;16191;49.548;8.658;2024-01-10T02:57:27;26.40;;;11.90;;
29120;SDS011;16191;49.548;8.658;2024-01-10T03:00:14;31.05;;;12.52;;
29120;SDS011;16191;49.548;8.658;2024-01-10T03:03:00;33.00;;;12.27;;
29120;SDS011;16191;49.548;8.658;2024-01-10T03:05:47;26.73;;;11.15;;
29120;SDS011;16191;49.548;8.658;2024-01-10T03:08:34;30.20;;;12.55;;
29120;SDS011;16191;49.548;8.658;2024-01-10T03:11:20;25.05;;;12.43;;
29120;SDS011;16191;49.548;8.658;2024-01-10T03:13:47;33.13;;;13.93;;
29120;SDS011;16191;49.548;8.658;2024-01-10T03:16:17;30.10;;;12.87;;
29120;SDS011;16191;49.548;8.658;2024-01-10T03:18:43;25.08;;;11.75;;
29120;SDS011;16191;49.548;8.658;2024-01-10T03:21:10;26.00;;;12.50;;
29120;SDS011;16191;49.548;8.658;2024-01-10T03:23:37;27.40;;;13.05;;
29120;SDS011;16191;49.548;8.658;2024-01-10T03:26:04;28.60;;;12.50;;
29120;SDS011;16191;49.548;8.658;2024-01-10T03:28:31;33.15;;;12.32;;
29120;SDS011;16191;49.548;8.658;2024-01-10T03:30:57;30.42;;;11.77;;
29120;SDS011;16191;49.548;8.658;2024-01-10T03:33:24;31.70;;;12.98;;
29120;SDS011;16191;49.548;8.658;2024-01-10T03:35:51;28.67;;;12.57;;
29120;SDS011;16191;49.548;8.658;2024-01-10T03:38:18;32.13;;;12.77;;
29120;SDS011;16191;49.548;8.658;2024-01-10T03:40:45;29.67;;;12.98;;
29120;SDS011;16191;49.548;8.658;2024-01-10T03:43:11;29.48;;;12.48;;
29120;SDS011;16191;49.548;8.658;2024-01-10T03:45:38;30.08;;;12.98;;
29120;SDS011;16191;49.548;8.658;2024-01-10T03:48:05;33.08;;;13.13;;
29120;SDS011;16191;49.548;8.658;2024-01-10T03:50:33;27.30;;;12.40;;
29120;SDS011;16191;49.548;8.658;2024-01-10T03:52:59;28.10;;;11.32;;
29120;SDS011;16191;49.548;8.658;2024-01-10T03:55:26;24.35;;;12.15;;
29120;SDS011;16191;49.548;8.658;2024-01-10T03:57:52;23.52;;;11.43;;
29120;SDS011;16191;49.548;8.658;2024-01-10T04:00:19;34.08;;;13.07;;
29120;SDS011;16191;49.548;8.658;2024-01-10T04:02:46;28.95;;;12.55;;
29120;SDS011;16191;49.548;8.658;2024-01-10T04:05:16;28.63;;;13.23;;
29120;SDS011;16191;49.548;8.658;2024-01-10T04:07:43;32.30;;;12.88;;
29120;SDS011;16191;49.548;8.658;2024-01-10T04:10:10;26.05;;;12.45;;
29120;SDS011;16191;49.548;8.658;2024-01-10T04:12:40;27.73;;;12.55;;
29120;SDS011;16191;49.548;8.658;2024-01-10T04:15:07;29.05;;;12.40;;
29120;SDS011;16191;49.548;8.658;2024-01-10T04:17:33;32.80;;;13.00;;
29120;SDS011;16191;49.548;8.658;2024-01-10T04:20:00;25.08;;;12.15;;
29120;SDS011;16191;49.548;8.658;2024-01-10T04:22:27;25.42;;;11.10;;
29120;SDS011;16191;49.548;8.658;2024-01-10T04:24:56;28.13;;;11.88;;
29120;SDS011;16191;49.548;8.658;2024-01-10T04:27:24;35.95;;;13.85;;
29120;SDS011;16191;49.548;8.658;2024-01-10T04:29:53;28.35;;;12.57;;
29120;SDS011;16191;49.548;8.658;2024-01-10T04:32:20;30.63;;;13.15;;
29120;SDS011;16191;49.548;8.658;2024-01-10T04:34:46;28.50;;;11.82;;
29120;SDS011;16191;49.548;8.658;2024-01-10T04:37:13;27.73;;;13.02;;
29120;SDS011;16191;49.548;8.658;2024-01-10T04:39:40;26.77;;;12.48;;
29120;SDS011;16191;49.548;8.658;2024-01-10T04:42:12;31.33;;;12.80;;
29120;SDS011;16191;49.548;8.658;2024-01-10T04:44:39;25.58;;;12.88;;
29120;SDS011;16191;49.548;8.658;2024-01-10T04:47:06;29.98;;;12.93;;
29120;SDS011;16191;49.548;8.658;2024-01-10T04:49:34;28.00;;;13.10;;
29120;SDS011;16191;49.548;8.658;2024-01-10T04:52:00;30.85;;;12.55;;
29120;SDS011;16191;49.548;8.658;2024-01-10T04:54:27;24.45;;;11.88;;
29120;SDS011;16191;49.548;8.658;2024-01-10T04:56:54;28.60;;;13.15;;
29120;SDS011;16191;49.548;8.658;2024-01-10T04:59:21;25.73;;;12.65;;
29120;SDS011;16191;49.548;8.658;2024-01-10T05:01:47;26.27;;;12.52;;
29120;SDS011;16191;49.548;8.658;2024-01-10T05:04:14;30.33;;;13.00;;
29120;SDS011;16191;49.548;8.658;2024-01-10T05:06:41;26.08;;;11.82;;
29120;SDS011;16191;49.548;8.658;2024-01-10T05:09:07;30.60;;;13.20;;
29120;SDS011;16191;49.548;8.658;2024-01-10T05:11:35;26.15;;;12.02;;
29120;SDS011;16191;49.548;8.658;2024-01-10T05:14:03;32.53;;;13.25;;
29120;SDS011;16191;49.548;8.658;2024-01-10T05:16:30;24.83;;;12.35;;
29120;SDS011;16191;49.548;8.658;2024-01-10T05:19:00;31.65;;;12.98;;
29120;SDS011;16191;49.548;8.658;2024-01-10T05:21:27;26.05;;;12.52;;
29120;SDS011;16191;49.548;8.658;2024-01-10T05:23:54;29.58;;;12.68;;
29120;SDS011;16191;49.548;8.658;2024-01-10T05:26:20;31.23;;;13.10;;
29120;SDS011;16191;49.548;8.658;2024-01-10T05:28:47;28.75;;;12.45;;
29120;SDS011;16191;49.548;8.658;2024-01-10T05:31:14;30.23;;;12.82;;
29120;SDS011;16191;49.548;8.658;2024-01-10T05:33:41;27.50;;;13.00;;
29120;SDS011;16191;49.548;8.658;2024-01-10T05:36:09;29.95;;;12.98;;
29120;SDS011;16191;49.548;8.658;2024-01-10T05:38:39;31.10;;;12.77;;
29120;SDS011;16191;49.548;8.658;2024-01-10T05:41:08;33.42;;;13.80;;
29120;SDS011;16191;49.548;8.658;2024-01-10T05:43:35;29.45;;;12.00;;
29120;SDS011;16191;49.548;8.658;2024-01-10T05:46:03;28.92;;;12.60;;
29120;SDS011;16191;49.548;8.658;2024-01-10T05:48:31;36.17;;;13.75;;
29120;SDS011;16191;49.548;8.658;2024-01-10T05:50:58;29.35;;;13.10;;
29120;SDS011;16191;49.548;8.658;2024-01-10T05:53:25;32.72;;;13.98;;
29120;SDS011;16191;49.548;8.658;2024-01-10T05:55:52;27.60;;;12.48;;
29120;SDS011;16191;49.548;8.658;2024-01-10T05:58:19;28.05;;;12.73;;
29120;SDS011;16191;49.548;8.658;2024-01-10T06:00:47;28.60;;;12.80;;
29120;SDS011;16191;49.548;8.658;2024-01-10T06:03:14;32.08;;;14.15;;
29120;SDS011;16191;49.548;8.658;2024-01-10T06:05:40;32.10;;;13.55;;
29120;SDS011;16191;49.548;8.658;2024-01-10T06:08:09;31.33;;;13.43;;
29120;SDS011;16191;49.548;8.658;2024-01-10T06:10:36;36.65;;;15.20;;
29120;SDS011;16191;49.548;8.658;2024-01-10T06:13:03;32.58;;;13.73;;
29120;SDS011;16191;49.548;8.658;2024-01-10T06:15:30;31.13;;;13.70;;
29120;SDS011;16191;49.548;8.658;2024-01-10T06:17:57;28.25;;;13.88;;
29120;SDS011;16191;49.548;8.658;2024-01-10T06:20:24;31.40;;;14.40;;
29120;SDS011;16191;49.548;8.658;2024-01-10T06:22:51;36.88;;;13.82;;
29120;SDS011;16191;49.548;8.658;2024-01-10T06:25:18;33.88;;;13.05;;
29120;SDS011;16191;49.548;8.658;2024-01-10T06:27:45;34.67;;;14.02;;
29120;SDS011;16191;49.548;8.658;2024-01-10T06:30:12;32.45;;;14.52;;
29120;SDS011;16191;49.548;8.658;2024-01-10T06:32:38;31.23;;;14.35;;
29120;SDS011;16191;49.548;8.658;2024-01-10T06:35:05;32.33;;;12.95;;
29120;SDS011;16191;49.548;8.658;2024-01-10T06:37:33;30.80;;;14.10;;
29120;SDS011;16191;49.548;8.658;2024-01-10T06:40:02;30.00;;;13.73;;
29120;SDS011;16191;49.548;8.658;2024-01-10T06:42:30;31.40;;;13.98;;
29120;SDS011;16191;49.548;8.658;2024-01-10T06:44:57;36.50;;;14.98;;
29120;SDS011;16191;49.548;8.658;2024-01-10T06:47:24;31.88;;;13.13;;
29120;SDS011;16191;49.548;8.658;2024-01-10T06:49:50;30.85;;;13.57;;
29120;SDS011;16191;49.548;8.658;2024-01-10T06:52:17;35.20;;;14.57;;
29120;SDS011;16191;49.548;8.658;2024-01-10T06:54:44;39.40;;;15.38;;
29120;SDS011;16191;49.548;8.658;2024-01-10T06:57:11;33.75;;;13.82;;
29120;SDS011;16191;49.548;8.658;2024-01-10T06:59:38;31.85;;;13.93;;
29120;SDS011;16191;49.548;8.658;2024-01-10T07:02:05;31.88;;;13.60;;
29120;SDS011;16191;49.548;8.658;2024-01-10T07:04:31;34.83;;;13.93;;
29120;SDS011;16191;49.548;8.658;2024-01-10T07:06:58;32.55;;;14.23;;
29120;SDS011;16191;49.548;8.658;2024-01-10T07:09:25;33.03;;;14.60;;
29120;SDS011;16191;49.548;8.658;2024-01-10T07:11:52;30.02;;;14.20;;
29120;SDS011;16191;49.548;8.658;2024-01-10T07:14:19;36.97;;;15.07;;
29120;SDS011;16191;49.548;8.658;2024-01-10T07:16:46;30.88;;;14.25;;
29120;SDS011;16191;49.548;8.658;2024-01-10T07:19:14;29.10;;;14.07;;
29120;SDS011;16191;49.548;8.658;2024-01-10T07:21:42;33.30;;;13.68;;
29120;SDS011;16191;49.548;8.658;2024-01-10T07:24:09;29.85;;;14.57;;
29120;SDS011;16191;49.548;8.658;2024-01-10T07:26:39;31.10;;;13.93;;
29120;SDS011;16191;49.548;8.658;2024-01-10T07:29:06;31.52;;;14.38;;
29120;SDS011;16191;49.548;8.658;2024-01-10T07:31:35;32.92;;;14.38;;
29120;SDS011;16191;49.548;8.658;2024-01-10T07:34:02;30.25;;;12.90;;
29120;SDS011;16191;49.548;8.658;2024-01-10T07:36:32;31.48;;;13.05;;
29120;SDS011;16191;49.548;8.658;2024-01-10T07:39:00;33.35;;;13.52;;
29120;SDS011;16191;49.548;8.658;2024-01-10T07:41:30;29.30;;;13.43;;
29120;SDS011;16191;49.548;8.658;2024-01-10T07:43:56;32.78;;;13.85;;
29120;SDS011;16191;49.548;8.658;2024-01-10T07:46:23;31.33;;;13.30;;
29120;SDS011;16191;49.548;8.658;2024-01-10T07:48:50;30.90;;;13.25;;
29120;SDS011;16191;49.548;8.658;2024-01-10T07:51:17;30.08;;;13.13;;
29120;SDS011;16191;49.548;8.658;2024-01-10T07:53:43;30.42;;;13.23;;
29120;SDS011;16191;49.548;8.658;2024-01-10T07:56:10;27.00;;;13.35;;
29120;SDS011;16191;49.548;8.658;2024-01-10T07:58:39;34.33;;;14.13;;
29120;SDS011;16191;49.548;8.658;2024-01-10T08:01:06;32.60;;;14.38;;
29120;SDS011;16191;49.548;8.658;2024-01-10T08:03:33;34.08;;;13.80;;
29120;SDS011;16191;49.548;8.658;2024-01-10T08:06:02;30.50;;;13.68;;
29120;SDS011;16191;49.548;8.658;2024-01-10T08:08:29;27.23;;;13.43;;
29120;SDS011;16191;49.548;8.658;2024-01-10T08:10:56;36.25;;;13.95;;
29120;SDS011;16191;49.548;8.658;2024-01-10T08:13:23;28.73;;;13.52;;
29120;SDS011;16191;49.548;8.658;2024-01-10T08:15:50;35.45;;;14.25;;
29120;SDS011;16191;49.548;8.658;2024-01-10T08:18:17;36.22;;;14.50;;
29120;SDS011;16191;49.548;8.658;2024-01-10T08:20:44;34.63;;;15.48;;
29120;SDS011;16191;49.548;8.658;2024-01-10T08:23:11;32.78;;;15.27;;
29120;SDS011;16191;49.548;8.658;2024-01-10T08:25:38;30.88;;;12.75;;
29120;SDS011;16191;49.548;8.658;2024-01-10T08:28:07;35.28;;;14.85;;
29120;SDS011;16191;49.548;8.658;2024-01-10T08:30:33;26.90;;;14.20;;
29120;SDS011;16191;49.548;8.658;2024-01-10T08:33:00;30.77;;;13.98;;
29120;SDS011;16191;49.548;8.658;2024-01-10T08:35:27;29.92;;;14.20;;
29120;SDS011;16191;49.548;8.658;2024-01-10T08:37:54;36.17;;;14.23;;
29120;SDS011;16191;49.548;8.658;2024-01-10T08:40:21;38.97;;;14.60;;
29120;SDS011;16191;49.548;8.658;2024-01-10T08:42:52;30.35;;;13.25;;
29120;SDS011;16191;49.548;8.658;2024-01-10T08:45:19;37.78;;;13.95;;
29120;SDS011;16191;49.548;8.658;2024-01-10T08:47:45;29.00;;;14.48;;
29120;SDS011;16191;49.548;8.658;2024-01-10T08:50:12;36.17;;;14.65;;
29120;SDS011;16191;49.548;8.658;2024-01-10T08:52:39;30.92;;;13.50;;
29120;SDS011;16191;49.548;8.658;2024-01-10T08:55:06;33.75;;;14.77;;
29120;SDS011;16191;49.548;8.658;2024-01-10T08:57:37;34.78;;;15.65;;
29120;SDS011;16191;49.548;8.658;2024-01-10T09:00:04;34.40;;;13.50;;
29120;SDS011;16191;49.548;8.658;2024-01-10T09:02:33;30.35;;;13.32;;
29120;SDS011;16191;49.548;8.658;2024-01-10T09:05:03;29.70;;;13.80;;
29120;SDS011;16191;49.548;8.658;2024-01-10T09:07:30;31.85;;;14.65;;
29120;SDS011;16191;49.548;8.658;2024-01-10T09:09:57;33.05;;;13.82;;
29120;SDS011;16191;49.548;8.658;2024-01-10T09:12:23;30.40;;;13.73;;
29120;SDS011;16191;49.548;8.658;2024-01-10T09:14:50;26.27;;;12.73;;
29120;SDS011;16191;49.548;8.658;2024-01-10T09:17:17;32.35;;;14.10;;
29120;SDS011;16191;49.548;8.658;2024-01-10T09:19:44;29.80;;;13.20;;
29120;SDS011;16191;49.548;8.658;2024-01-10T09:22:10;27.70;;;13.40;;
29120;SDS011;16191;49.548;8.658;2024-01-10T09:24:37;30.35;;;13.63;;
29120;SDS011;16191;49.548;8.658;2024-01-10T09:27:08;31.67;;;13.38;;
29120;SDS011;16191;49.548;8.658;2024-01-10T09:29:35;31.50;;;13.80;;
29120;SDS011;16191;49.548;8.658;2024-01-10T09:32:02;30.52;;;14.00;;
29120;SDS011;16191;49.548;8.658;2024-01-10T09:34:29;31.77;;;13.73;;
29120;SDS011;16191;49.548;8.658;2024-01-10T09:36:56;30.73;;;13.43;;
29120;SDS011;16191;49.548;8.658;2024-01-10T09:39:23;30.65;;;13.82;;
29120;SDS011;16191;49.548;8.658;2024-01-10T09:41:50;30.75;;;14.10;;
29120;SDS011;16191;49.548;8.658;2024-01-10T09:44:18;28.77;;;13.05;;
29120;SDS011;16191;49.548;8.658;2024-01-10T09:46:49;26.52;;;12.82;;
29120;SDS011;16191;49.548;8.658;2024-01-10T09:49:19;29.45;;;13.23;;
29120;SDS011;16191;49.548;8.658;2024-01-10T09:51:51;31.80;;;15.32;;
29120;SDS011;16191;49.548;8.658;2024-01-10T09:54:24;29.58;;;13.00;;
29120;SDS011;16191;49.548;8.658;2024-01-10T09:56:52;29.30;;;11.73;;
29120;SDS011;16191;49.548;8.658;2024-01-10T09:59:19;28.52;;;13.35;;
29120;SDS011;16191;49.548;8.658;2024-01-10T10:01:46;32.45;;;13.77;;
29120;SDS011;16191;49.548;8.658;2024-01-10T10:04:13;29.15;;;12.90;;
29120;SDS011;16191;49.548;8.658;2024-01-10T10:06:43;27.88;;;13.68;;
29120;SDS011;16191;49.548;8.658;2024-01-10T10:09:10;29.35;;;11.88;;
29120;SDS011;16191;49.548;8.658;2024-01-10T10:11:38;28.30;;;12.45;;
29120;SDS011;16191;49.548;8.658;2024-01-10T10:14:23;30.63;;;13.63;;
29120;SDS011;16191;49.548;8.658;2024-01-10T10:16:52;29.15;;;13.18;;
29120;SDS011;16191;49.548;8.658;2024-01-10T10:19:22;28.98;;;12.68;;
29120;SDS011;16191;49.548;8.658;2024-01-10T10:22:09;26.83;;;12.77;;
29120;SDS011;16191;49.548;8.658;2024-01-10T10:24:37;26.95;;;12.95;;
29120;SDS011;16191;49.548;8.658;2024-01-10T10:27:08;31.33;;;13.57;;
29120;SDS011;16191;49.548;8.658;2024-01-10T10:29:40;30.88;;;14.32;;
29120;SDS011;16191;49.548;8.658;2024-01-10T10:32:11;24.95;;;13.10;;
29120;SDS011;16191;49.548;8.658;2024-01-10T10:34:38;28.17;;;13.60;;
29120;SDS011;16191;49.548;8.658;2024-01-10T10:37:04;26.10;;;11.85;;
29120;SDS011;16191;49.548;8.658;2024-01-10T10:39:31;31.58;;;13.48;;
29120;SDS011;16191;49.548;8.658;2024-01-10T10:41:58;27.27;;;13.68;;
29120;SDS011;16191;49.548;8.658;2024-01-10T10:44:27;24.98;;;13.13;;
29120;SDS011;16191;49.548;8.658;2024-01-10T10:46:55;25.13;;;12.65;;
29120;SDS011;16191;49.548;8.658;2024-01-10T10:49:40;28.50;;;13.38;;
29120;SDS011;16191;49.548;8.658;2024-01-10T10:52:16;28.33;;;13.18;;
29120;SDS011;16191;49.548;8.658;2024-01-10T10:54:46;33.55;;;14.00;;
29120;SDS011;16191;49.548;8.658;2024-01-10T10:57:14;24.75;;;12.85;;
29120;SDS011;16191;49.548;8.658;2024-01-10T10:59:44;24.88;;;12.50;;
29120;SDS011;16191;49.548;8.658;2024-01-10T11:02:12;31.15;;;13.63;;
29120;SDS011;16191;49.548;8.658;2024-01-10T11:04:46;25.48;;;12.65;;
29120;SDS011;16191;49.548;8.658;2024-01-10T11:07:14;33.50;;;12.85;;
29120;SDS011;16191;49.548;8.658;2024-01-10T11:09:41;27.33;;;13.65;;
29120;SDS011;16191;49.548;8.658;2024-01-10T11:15:20;26.40;;;13.43;;
29120;SDS011;16191;49.548;8.658;2024-01-10T11:18:15;28.08;;;12.07;;
29120;SDS011;16191;49.548;8.658;2024-01-10T11:23:49;30.20;;;13.23;;
29120;SDS011;16191;49.548;8.658;2024-01-10T11:26:19;24.95;;;12.98;;
29120;SDS011;16191;49.548;8.658;2024-01-10T11:28:46;27.08;;;13.18;;
29120;SDS011;16191;49.548;8.658;2024-01-10T11:31:13;22.45;;;12.40;;
29120;SDS011;16191;49.548;8.658;2024-01-10T11:33:42;26.73;;;13.32;;
29120;SDS011;16191;49.548;8.658;2024-01-10T11:36:15;28.58;;;13.18;;
29120;SDS011;16191;49.548;8.658;2024-01-10T11:41:22;30.08;;;12.82;;
29120;SDS011;16191;49.548;8.658;2024-01-10T11:46:40;27.23;;;14.00;;
29120;SDS011;16191;49.548;8.658;2024-01-10T11:49:12;22.85;;;12.48;;
29120;SDS011;16191;49.548;8.658;2024-01-10T11:51:42;27.10;;;13.43;;
29120;SDS011;16191;49.548;8.658;2024-01-10T11:59:52;27.85;;;13.80;;
29120;SDS011;16191;49.548;8.658;2024-01-10T12:02:21;26.95;;;13.90;;
29120;SDS011;16191;49.548;8.658;2024-01-10T12:04:50;29.38;;;14.20;;
29120;SDS011;16191;49.548;8.658;2024-01-10T12:07:17;29.25;;;14.63;;
29120;SDS011;16191;49.548;8.658;2024-01-10T12:09:46;32.78;;;15.23;;
29120;SDS011;16191;49.548;8.658;2024-01-10T12:12:13;28.88;;;14.48;;
29120;SDS011;16191;49.548;8.658;2024-01-10T12:14:41;26.60;;;14.25;;
29120;SDS011;16191;49.548;8.658;2024-01-10T12:17:09;29.70;;;13.70;;
29120;SDS011;16191;49.548;8.658;2024-01-10T12:19:36;27.05;;;13.52;;
29120;SDS011;16191;49.548;8.658;2024-01-10T12:22:07;28.30;;;14.60;;
29120;SDS011;16191;49.548;8.658;2024-01-10T12:29:49;27.02;;;13.70;;
29120;SDS011;16191;49.548;8.658;2024-01-10T12:32:20;32.90;;;14.15;;
29120;SDS011;16191;49.548;8.658;2024-01-10T12:34:57;30.23;;;15.10;;
29120;SDS011;16191;49.548;8.658;2024-01-10T12:37:26;27.70;;;14.35;;
29120;SDS011;16191;49.548;8.658;2024-01-10T12:39:53;31.85;;;14.38;;
29120;SDS011;16191;49.548;8.658;2024-01-10T12:42:20;29.35;;;14.90;;
29120;SDS011;16191;49.548;8.658;2024-01-10T12:44:47;31.50;;;14.15;;
29120;SDS011;16191;49.548;8.658;2024-01-10T12:47:20;29.30;;;14.88;;
29120;SDS011;16191;49.548;8.658;2024-01-10T12:49:49;26.98;;;14.38;;
29120;SDS011;16191;49.548;8.658;2024-01-10T12:52:17;31.38;;;15.43;;
29120;SDS011;16191;49.548;8.658;2024-01-10T12:54:48;28.88;;;14.02;;
29120;SDS011;16191;49.548;8.658;2024-01-10T12:57:15;29.95;;;14.48;;
29120;SDS011;16191;49.548;8.658;2024-01-10T12:59:41;28.58;;;14.20;;
29120;SDS011;16191;49.548;8.658;2024-01-10T13:02:08;33.40;;;15.93;;
29120;SDS011;16191;49.548;8.658;2024-01-10T13:04:34;25.88;;;13.73;;
29120;SDS011;16191;49.548;8.658;2024-01-10T13:07:02;29.88;;;14.35;;
29120;SDS011;16191;49.548;8.658;2024-01-10T13:09:28;30.85;;;13.75;;
29120;SDS011;16191;49.548;8.658;2024-01-10T13:11:55;28.52;;;13.75;;
29120;SDS011;16191;49.548;8.658;2024-01-10T13:14:22;31.50;;;15.05;;
29120;SDS011;16191;49.548;8.658;2024-01-10T13:16:48;32.67;;;15.52;;
29120;SDS011;16191;49.548;8.658;2024-01-10T13:19:25;33.30;;;15.20;;
29120;SDS011;16191;49.548;8.658;2024-01-10T13:21:52;29.13;;;14.23;;
29120;SDS011;16191;49.548;8.658;2024-01-10T13:24:22;26.35;;;14.50;;
29120;SDS011;16191;49.548;8.658;2024-01-10T13:26:48;27.75;;;14.02;;
29120;SDS011;16191;49.548;8.658;2024-01-10T13:29:16;29.73;;;14.10;;
29120;SDS011;16191;49.548;8.658;2024-01-10T13:31:42;26.70;;;14.65;;
29120;SDS011;16191;49.548;8.658;2024-01-10T13:34:09;30.20;;;14.85;;
29120;SDS011;16191;49.548;8.658;2024-01-10T13:36:37;29.70;;;15.82;;
29120;SDS011;16191;49.548;8.658;2024-01-10T13:39:04;26.73;;;14.30;;
29120;SDS011;16191;49.548;8.658;2024-01-10T13:41:31;28.73;;;14.77;;
29120;SDS011;16191;49.548;8.658;2024-01-10T13:43:57;31.40;;;15.43;;
29120;SDS011;16191;49.548;8.658;2024-01-10T13:46:25;28.58;;;14.85;;
29120;SDS011;16191;49.548;8.658;2024-01-10T13:48:51;33.13;;;15.40;;
29120;SDS011;16191;49.548;8.658;2024-01-10T13:51:18;29.40;;;14.13;;
29120;SDS011;16191;49.548;8.658;2024-01-10T13:53:44;26.95;;;14.85;;
29120;SDS011;16191;49.548;8.658;2024-01-10T13:56:11;27.85;;;14.05;;
29120;SDS011;16191;49.548;8.658;2024-01-10T13:58:38;29.83;;;14.57;;
29120;SDS011;16191;49.548;8.658;2024-01-10T14:01:05;27.50;;;13.32;;
29120;SDS011;16191;49.548;8.658;2024-01-10T14:03:32;28.42;;;15.07;;
29120;SDS011;16191;49.548;8.658;2024-01-10T14:05:59;31.20;;;15.60;;
29120;SDS011;16191;49.548;8.658;2024-01-10T14:08:27;26.85;;;14.93;;
29120;SDS011;16191;49.548;8.658;2024-01-10T14:10:54;28.38;;;14.68;;
29120;SDS011;16191;49.548;8.658;2024-01-10T14:13:21;28.90;;;14.70;;
29120;SDS011;16191;49.548;8.658;2024-01-10T14:15:49;32.75;;;16.20;;
29120;SDS011;16191;49.548;8.658;2024-01-10T14:18:16;31.23;;;14.70;;
29120;SDS011;16191;49.548;8.658;2024-01-10T14:20:43;33.97;;;15.00;;
29120;SDS011;16191;49.548;8.658;2024-01-10T14:23:10;30.30;;;14.70;;
29120;SDS011;16191;49.548;8.658;2024-01-10T14:25:37;36.42;;;15.32;;
29120;SDS011;16191;49.548;8.658;2024-01-10T14:28:03;31.52;;;14.85;;
29120;SDS011;16191;49.548;8.658;2024-01-10T14:30:30;28.10;;;15.02;;
29120;SDS011;16191;49.548;8.658;2024-01-10T14:32:58;30.83;;;15.27;;
29120;SDS011;16191;49.548;8.658;2024-01-10T14:35:26;29.20;;;14.57;;
29120;SDS011;16191;49.548;8.658;2024-01-10T14:37:53;33.85;;;14.75;;
29120;SDS011;16191;49.548;8.658;2024-01-10T14:40:19;34.05;;;15.48;;
29120;SDS011;16191;49.548;8.658;2024-01-10T14:42:48;32.00;;;15.07;;
29120;SDS011;16191;49.548;8.658;2024-01-10T14:45:15;32.47;;;14.63;;
29120;SDS011;16191;49.548;8.658;2024-01-10T14:47:42;31.33;;;14.98;;
29120;SDS011;16191;49.548;8.658;2024-01-10T14:50:08;28.85;;;14.65;;